sensor_id;sensor_type;location;lat;lon;timestamp;pressure;altitude;pressure_sealevel;temperature;humidity
59493;BME280;45497;43.996;22.876;2023-02-13T00:01:25;103290.06;;;3.67;53.65
59493;BME280;45497;43.996;22.876;2023-02-13T00:03:51;103286.47;;;3.70;53.37
59493;BME280;45497;43.996;22.876;2023-02-13T00:06:16;103282.84;;;3.72;53.33
59493;BME280;45497;43.996;22.876;2023-02-13T00:08:41;103286.22;;;3.76;53.49
59493;BME280;45497;43.996;22.876;2023-02-13T00:11:07;103297.59;;;3.76;53.52
59493;BME280;45497;43.996;22.876;2023-02-13T00:13:33;103295.19;;;3.70;53.66
59493;BME280;45497;43.996;22.876;2023-02-13T00:16:01;103301.47;;;3.66;53.96
59493;BME280;45497;43.996;22.876;2023-02-13T00:18:28;103297.06;;;3.67;53.96
59493;BME280;45497;43.996;22.876;2023-02-13T00:20:59;103305.88;;;3.66;53.81
59493;BME280;45497;43.996;22.876;2023-02-13T00:23:24;103298.81;;;3.68;53.62
59493;BME280;45497;43.996;22.876;2023-02-13T00:25:50;103305.16;;;3.62;53.76
59493;BME280;45497;43.996;22.876;2023-02-13T00:28:15;103314.59;;;3.66;53.44
59493;BME280;45497;43.996;22.876;2023-02-13T00:30:41;103324.53;;;3.58;53.69
59493;BME280;45497;43.996;22.876;2023-02-13T00:33:06;103313.53;;;3.48;53.98
59493;BME280;45497;43.996;22.876;2023-02-13T00:35:32;103314.59;;;3.44;53.77
59493;BME280;45497;43.996;22.876;2023-02-13T00:37:57;103310.81;;;3.51;53.77
59493;BME280;45497;43.996;22.876;2023-02-13T00:40:23;103319.16;;;3.61;53.36
59493;BME280;45497;43.996;22.876;2023-02-13T00:42:48;103312.34;;;3.57;53.53
59493;BME280;45497;43.996;22.876;2023-02-13T00:45:14;103311.47;;;3.56;53.15
59493;BME280;45497;43.996;22.876;2023-02-13T00:47:39;103312.13;;;3.61;53.06
59493;BME280;45497;43.996;22.876;2023-02-13T00:50:05;103323.38;;;3.65;53.14
59493;BME280;45497;43.996;22.876;2023-02-13T00:52:30;103319.63;;;3.71;52.84
59493;BME280;45497;43.996;22.876;2023-02-13T00:54:56;103314.59;;;3.66;52.77
59493;BME280;45497;43.996;22.876;2023-02-13T00:57:21;103314.97;;;3.57;53.04
59493;BME280;45497;43.996;22.876;2023-02-13T00:59:47;103312.97;;;3.40;53.34
59493;BME280;45497;43.996;22.876;2023-02-13T01:02:12;103305.31;;;3.35;53.57
59493;BME280;45497;43.996;22.876;2023-02-13T01:04:38;103296.22;;;3.44;53.54
59493;BME280;45497;43.996;22.876;2023-02-13T01:07:03;103303.75;;;3.53;53.01
59493;BME280;45497;43.996;22.876;2023-02-13T01:09:28;103305.06;;;3.63;52.77
59493;BME280;45497;43.996;22.876;2023-02-13T01:11:54;103300.53;;;3.67;52.71
59493;BME280;45497;43.996;22.876;2023-02-13T01:14:19;103284.22;;;3.60;52.43
59493;BME280;45497;43.996;22.876;2023-02-13T01:16:45;103287.75;;;3.59;52.61
59493;BME280;45497;43.996;22.876;2023-02-13T01:19:10;103299.59;;;3.70;52.40
59493;BME280;45497;43.996;22.876;2023-02-13T01:21:36;103289.09;;;3.70;52.21
59493;BME280;45497;43.996;22.876;2023-02-13T01:24:03;103297.63;;;3.75;52.39
59493;BME280;45497;43.996;22.876;2023-02-13T01:26:29;103291.34;;;3.79;52.12
59493;BME280;45497;43.996;22.876;2023-02-13T01:28:54;103292.81;;;3.86;51.64
59493;BME280;45497;43.996;22.876;2023-02-13T01:31:21;103296.22;;;3.88;51.35
59493;BME280;45497;43.996;22.876;2023-02-13T01:33:47;103297.63;;;3.97;51.51
59493;BME280;45497;43.996;22.876;2023-02-13T01:36:12;103294.88;;;4.00;51.41
59493;BME280;45497;43.996;22.876;2023-02-13T01:38:38;103295.97;;;3.94;51.07
59493;BME280;45497;43.996;22.876;2023-02-13T01:41:04;103299.84;;;3.86;51.51
59493;BME280;45497;43.996;22.876;2023-02-13T01:46:25;103291.88;;;3.43;52.17
59493;BME280;45497;43.996;22.876;2023-02-13T01:48:54;103299.81;;;3.41;52.56
59493;BME280;45497;43.996;22.876;2023-02-13T01:51:27;103288.22;;;3.25;53.20
59493;BME280;45497;43.996;22.876;2023-02-13T01:54:01;103299.72;;;3.21;53.37
59493;BME280;45497;43.996;22.876;2023-02-13T01:56:50;103297.47;;;3.12;53.97
59493;BME280;45497;43.996;22.876;2023-02-13T01:59:24;103296.09;;;3.01;54.15
59493;BME280;45497;43.996;22.876;2023-02-13T02:01:51;103294.41;;;2.99;54.41
59493;BME280;45497;43.996;22.876;2023-02-13T02:04:21;103295.34;;;2.98;54.13
59493;BME280;45497;43.996;22.876;2023-02-13T02:06:54;103301.47;;;2.97;54.22
59493;BME280;45497;43.996;22.876;2023-02-13T02:09:24;103301.53;;;2.95;54.24
59493;BME280;45497;43.996;22.876;2023-02-13T02:14:34;103298.75;;;3.00;54.24
59493;BME280;45497;43.996;22.876;2023-02-13T02:17:00;103295.50;;;2.93;54.35
59493;BME280;45497;43.996;22.876;2023-02-13T02:19:43;103295.72;;;2.87;54.68
59493;BME280;45497;43.996;22.876;2023-02-13T02:41:03;103317.50;;;2.39;56.23
59493;BME280;45497;43.996;22.876;2023-02-13T02:44:00;103303.72;;;2.34;56.22
59493;BME280;45497;43.996;22.876;2023-02-13T02:46:36;103306.31;;;2.34;56.06
59493;BME280;45497;43.996;22.876;2023-02-13T02:49:25;103303.63;;;2.37;55.78
59493;BME280;45497;43.996;22.876;2023-02-13T02:52:16;103296.03;;;2.29;56.27
59493;BME280;45497;43.996;22.876;2023-02-13T02:55:18;103299.13;;;2.40;55.74
59493;BME280;45497;43.996;22.876;2023-02-13T02:57:58;103300.91;;;2.40;55.86
59493;BME280;45497;43.996;22.876;2023-02-13T03:00:45;103304.47;;;2.37;55.95
59493;BME280;45497;43.996;22.876;2023-02-13T03:03:33;103295.81;;;2.35;55.94
59493;BME280;45497;43.996;22.876;2023-02-13T03:06:23;103298.28;;;2.40;56.04
59493;BME280;45497;43.996;22.876;2023-02-13T03:08:57;103311.19;;;2.44;56.11
59493;BME280;45497;43.996;22.876;2023-02-13T03:11:46;103303.91;;;2.54;55.92
59493;BME280;45497;43.996;22.876;2023-02-13T03:14:32;103310.69;;;2.60;55.58
59493;BME280;45497;43.996;22.876;2023-02-13T03:16:57;103300.31;;;2.57;55.76
59493;BME280;45497;43.996;22.876;2023-02-13T03:23:12;103315.50;;;2.47;56.27
59493;BME280;45497;43.996;22.876;2023-02-13T03:31:34;103310.34;;;2.44;56.30
59493;BME280;45497;43.996;22.876;2023-02-13T03:34:14;103316.59;;;2.40;56.42
59493;BME280;45497;43.996;22.876;2023-02-13T03:36:58;103326.81;;;2.47;56.43
59493;BME280;45497;43.996;22.876;2023-02-13T03:39:58;103325.84;;;2.50;56.20
59493;BME280;45497;43.996;22.876;2023-02-13T03:45:00;103310.25;;;2.47;56.13
59493;BME280;45497;43.996;22.876;2023-02-13T03:47:48;103308.56;;;2.44;56.37
59493;BME280;45497;43.996;22.876;2023-02-13T03:50:16;103315.34;;;2.50;55.88
59493;BME280;45497;43.996;22.876;2023-02-13T03:52:57;103317.84;;;2.55;56.25
59493;BME280;45497;43.996;22.876;2023-02-13T03:55:32;103319.75;;;2.49;56.09
59493;BME280;45497;43.996;22.876;2023-02-13T03:58:20;103330.84;;;2.31;56.74
59493;BME280;45497;43.996;22.876;2023-02-13T04:01:07;103320.47;;;2.28;56.96
59493;BME280;45497;43.996;22.876;2023-02-13T04:06:20;103321.13;;;2.35;56.83
59493;BME280;45497;43.996;22.876;2023-02-13T04:08:48;103328.94;;;2.36;56.83
59493;BME280;45497;43.996;22.876;2023-02-13T04:11:27;103322.78;;;2.37;56.79
59493;BME280;45497;43.996;22.876;2023-02-13T04:14:00;103321.09;;;2.36;56.89
59493;BME280;45497;43.996;22.876;2023-02-13T04:16:34;103324.56;;;2.37;56.52
59493;BME280;45497;43.996;22.876;2023-02-13T04:19:01;103322.75;;;2.39;56.44
59493;BME280;45497;43.996;22.876;2023-02-13T04:21:33;103323.00;;;2.31;56.77
59493;BME280;45497;43.996;22.876;2023-02-13T04:23:59;103333.31;;;2.36;56.57
59493;BME280;45497;43.996;22.876;2023-02-13T04:26:30;103334.31;;;2.32;56.81
59493;BME280;45497;43.996;22.876;2023-02-13T04:28:57;103334.97;;;2.38;56.53
59493;BME280;45497;43.996;22.876;2023-02-13T04:31:22;103334.13;;;2.38;56.44
59493;BME280;45497;43.996;22.876;2023-02-13T04:33:47;103334.13;;;2.38;56.60
59493;BME280;45497;43.996;22.876;2023-02-13T04:36:13;103336.22;;;2.26;57.00
59493;BME280;45497;43.996;22.876;2023-02-13T04:38:38;103329.72;;;2.13;57.67
59493;BME280;45497;43.996;22.876;2023-02-13T04:41:04;103334.59;;;2.24;57.35
59493;BME280;45497;43.996;22.876;2023-02-13T04:43:29;103336.03;;;2.33;56.97
59493;BME280;45497;43.996;22.876;2023-02-13T04:45:55;103334.28;;;2.33;56.88
59493;BME280;45497;43.996;22.876;2023-02-13T04:48:20;103342.78;;;2.40;56.56
59493;BME280;45497;43.996;22.876;2023-02-13T04:50:46;103337.78;;;2.32;56.68
59493;BME280;45497;43.996;22.876;2023-02-13T04:53:12;103338.84;;;2.26;56.96
59493;BME280;45497;43.996;22.876;2023-02-13T04:55:37;103343.03;;;2.32;57.11
59493;BME280;45497;43.996;22.876;2023-02-13T04:58:03;103349.31;;;2.26;57.12
59493;BME280;45497;43.996;22.876;2023-02-13T05:00:28;103346.91;;;2.20;57.01
59493;BME280;45497;43.996;22.876;2023-02-13T05:03:01;103351.47;;;2.14;57.49
59493;BME280;45497;43.996;22.876;2023-02-13T05:05:28;103335.94;;;2.09;57.61
59493;BME280;45497;43.996;22.876;2023-02-13T05:07:53;103337.84;;;2.04;57.88
59493;BME280;45497;43.996;22.876;2023-02-13T05:10:19;103344.19;;;1.97;58.27
59493;BME280;45497;43.996;22.876;2023-02-13T05:12:44;103344.63;;;1.83;58.75
59493;BME280;45497;43.996;22.876;2023-02-13T05:15:12;103341.75;;;1.90;58.48
59493;BME280;45497;43.996;22.876;2023-02-13T05:17:37;103344.28;;;1.94;58.54
59493;BME280;45497;43.996;22.876;2023-02-13T05:20:03;103340.69;;;1.96;58.79
59493;BME280;45497;43.996;22.876;2023-02-13T05:22:28;103336.09;;;2.04;58.33
59493;BME280;45497;43.996;22.876;2023-02-13T05:25:12;103342.97;;;2.07;58.56
59493;BME280;45497;43.996;22.876;2023-02-13T05:27:38;103357.69;;;2.11;58.48
59493;BME280;45497;43.996;22.876;2023-02-13T05:30:04;103347.97;;;2.15;58.20
59493;BME280;45497;43.996;22.876;2023-02-13T05:32:30;103362.44;;;2.25;58.00
59493;BME280;45497;43.996;22.876;2023-02-13T05:34:55;103359.69;;;2.29;57.78
59493;BME280;45497;43.996;22.876;2023-02-13T05:37:20;103355.00;;;2.39;57.51
59493;BME280;45497;43.996;22.876;2023-02-13T05:39:46;103359.06;;;2.48;57.27
59493;BME280;45497;43.996;22.876;2023-02-13T05:42:11;103352.78;;;2.54;57.32
59493;BME280;45497;43.996;22.876;2023-02-13T05:44:37;103353.38;;;2.62;57.14
59493;BME280;45497;43.996;22.876;2023-02-13T05:47:02;103360.16;;;2.67;56.96
59493;BME280;45497;43.996;22.876;2023-02-13T05:49:28;103358.94;;;2.78;56.84
59493;BME280;45497;43.996;22.876;2023-02-13T05:51:53;103357.91;;;2.82;56.62
59493;BME280;45497;43.996;22.876;2023-02-13T05:54:19;103354.66;;;2.75;56.88
59493;BME280;45497;43.996;22.876;2023-02-13T05:56:45;103363.09;;;2.83;56.64
59493;BME280;45497;43.996;22.876;2023-02-13T05:59:11;103366.63;;;2.82;57.09
59493;BME280;45497;43.996;22.876;2023-02-13T06:01:36;103372.66;;;2.84;56.80
59493;BME280;45497;43.996;22.876;2023-02-13T06:04:02;103364.75;;;2.86;57.03
59493;BME280;45497;43.996;22.876;2023-02-13T06:06:27;103385.38;;;2.95;56.62
59493;BME280;45497;43.996;22.876;2023-02-13T06:08:53;103374.84;;;2.97;56.61
59493;BME280;45497;43.996;22.876;2023-02-13T06:11:19;103374.91;;;2.95;56.74
59493;BME280;45497;43.996;22.876;2023-02-13T06:13:44;103373.91;;;2.99;56.88
59493;BME280;45497;43.996;22.876;2023-02-13T06:16:10;103377.41;;;2.98;56.70
59493;BME280;45497;43.996;22.876;2023-02-13T06:18:36;103383.13;;;3.10;56.65
59493;BME280;45497;43.996;22.876;2023-02-13T06:21:02;103382.56;;;3.25;56.34
59493;BME280;45497;43.996;22.876;2023-02-13T06:23:28;103371.59;;;3.39;55.74
59493;BME280;45497;43.996;22.876;2023-02-13T06:25:54;103379.25;;;3.43;55.70
59493;BME280;45497;43.996;22.876;2023-02-13T06:28:19;103366.94;;;3.45;55.60
59493;BME280;45497;43.996;22.876;2023-02-13T06:30:45;103367.13;;;3.64;55.13
59493;BME280;45497;43.996;22.876;2023-02-13T06:33:10;103364.00;;;3.77;54.95
59493;BME280;45497;43.996;22.876;2023-02-13T06:35:36;103366.16;;;3.89;54.48
59493;BME280;45497;43.996;22.876;2023-02-13T06:38:01;103364.63;;;4.06;53.85
59493;BME280;45497;43.996;22.876;2023-02-13T06:40:27;103362.69;;;4.11;53.73
59493;BME280;45497;43.996;22.876;2023-02-13T06:42:52;103359.78;;;4.17;54.00
59493;BME280;45497;43.996;22.876;2023-02-13T06:45:18;103366.44;;;4.26;53.69
59493;BME280;45497;43.996;22.876;2023-02-13T06:47:45;103366.22;;;4.30;54.06
59493;BME280;45497;43.996;22.876;2023-02-13T06:50:12;103367.22;;;4.28;54.33
59493;BME280;45497;43.996;22.876;2023-02-13T06:52:38;103378.00;;;4.21;54.64
59493;BME280;45497;43.996;22.876;2023-02-13T06:55:04;103363.31;;;4.16;54.27
59493;BME280;45497;43.996;22.876;2023-02-13T06:57:30;103372.00;;;4.18;54.62
59493;BME280;45497;43.996;22.876;2023-02-13T06:59:59;103371.19;;;4.16;54.43
59493;BME280;45497;43.996;22.876;2023-02-13T07:02:27;103368.50;;;4.17;54.75
59493;BME280;45497;43.996;22.876;2023-02-13T07:04:52;103380.41;;;4.26;54.31
59493;BME280;45497;43.996;22.876;2023-02-13T07:07:18;103375.78;;;4.33;54.12
59493;BME280;45497;43.996;22.876;2023-02-13T07:09:43;103386.00;;;4.39;54.08
59493;BME280;45497;43.996;22.876;2023-02-13T07:12:09;103390.09;;;4.46;53.90
59493;BME280;45497;43.996;22.876;2023-02-13T07:14:34;103386.16;;;4.56;53.76
59493;BME280;45497;43.996;22.876;2023-02-13T07:17:00;103383.34;;;4.61;53.67
59493;BME280;45497;43.996;22.876;2023-02-13T07:19:25;103387.16;;;4.74;53.56
59493;BME280;45497;43.996;22.876;2023-02-13T07:21:51;103393.41;;;4.72;53.60
59493;BME280;45497;43.996;22.876;2023-02-13T07:24:16;103398.44;;;4.76;53.66
59493;BME280;45497;43.996;22.876;2023-02-13T07:26:42;103386.16;;;4.77;53.55
59493;BME280;45497;43.996;22.876;2023-02-13T07:29:07;103379.09;;;4.79;53.55
59493;BME280;45497;43.996;22.876;2023-02-13T07:31:33;103382.09;;;4.90;53.44
59493;BME280;45497;43.996;22.876;2023-02-13T07:33:59;103381.81;;;4.96;53.28
59493;BME280;45497;43.996;22.876;2023-02-13T07:36:26;103380.63;;;5.04;53.21
59493;BME280;45497;43.996;22.876;2023-02-13T07:38:52;103378.94;;;5.03;52.98
59493;BME280;45497;43.996;22.876;2023-02-13T07:41:17;103377.50;;;5.14;53.26
59493;BME280;45497;43.996;22.876;2023-02-13T07:43:43;103380.22;;;5.13;52.55
59493;BME280;45497;43.996;22.876;2023-02-13T07:46:09;103372.25;;;5.14;53.36
59493;BME280;45497;43.996;22.876;2023-02-13T07:48:34;103377.81;;;5.27;52.82
59493;BME280;45497;43.996;22.876;2023-02-13T07:51:02;103381.81;;;5.36;53.01
59493;BME280;45497;43.996;22.876;2023-02-13T07:53:28;103367.03;;;5.33;52.91
59493;BME280;45497;43.996;22.876;2023-02-13T07:55:54;103368.59;;;5.38;52.88
59493;BME280;45497;43.996;22.876;2023-02-13T07:58:19;103368.16;;;5.47;52.42
59493;BME280;45497;43.996;22.876;2023-02-13T08:00:45;103363.25;;;5.58;52.06
59493;BME280;45497;43.996;22.876;2023-02-13T08:03:10;103369.78;;;5.68;52.37
59493;BME280;45497;43.996;22.876;2023-02-13T08:05:36;103362.41;;;5.77;51.81
59493;BME280;45497;43.996;22.876;2023-02-13T08:08:02;103365.22;;;5.91;51.99
59493;BME280;45497;43.996;22.876;2023-02-13T08:10:27;103365.94;;;5.94;51.85
59493;BME280;45497;43.996;22.876;2023-02-13T08:13:13;103359.16;;;6.08;51.96
59493;BME280;45497;43.996;22.876;2023-02-13T08:15:40;103358.00;;;6.13;51.37
59493;BME280;45497;43.996;22.876;2023-02-13T08:18:05;103356.56;;;6.25;51.68
59493;BME280;45497;43.996;22.876;2023-02-13T08:20:31;103356.56;;;6.43;51.51
59493;BME280;45497;43.996;22.876;2023-02-13T08:23:04;103343.69;;;6.54;51.00
59493;BME280;45497;43.996;22.876;2023-02-13T08:25:30;103363.66;;;6.58;50.91
59493;BME280;45497;43.996;22.876;2023-02-13T08:27:58;103356.94;;;6.53;50.56
59493;BME280;45497;43.996;22.876;2023-02-13T08:30:23;103358.03;;;6.48;48.91
59493;BME280;45497;43.996;22.876;2023-02-13T08:32:49;103349.78;;;6.72;48.95
59493;BME280;45497;43.996;22.876;2023-02-13T08:35:14;103349.66;;;6.91;48.62
59493;BME280;45497;43.996;22.876;2023-02-13T08:37:40;103352.41;;;7.05;48.71
59493;BME280;45497;43.996;22.876;2023-02-13T08:40:06;103349.84;;;7.04;47.03
59493;BME280;45497;43.996;22.876;2023-02-13T08:42:35;103342.38;;;6.79;46.50
59493;BME280;45497;43.996;22.876;2023-02-13T08:45:00;103336.59;;;7.05;46.80
59493;BME280;45497;43.996;22.876;2023-02-13T08:47:26;103344.22;;;7.27;45.85
59493;BME280;45497;43.996;22.876;2023-02-13T08:49:51;103338.84;;;7.29;45.74
59493;BME280;45497;43.996;22.876;2023-02-13T08:52:17;103333.97;;;7.05;44.26
59493;BME280;45497;43.996;22.876;2023-02-13T08:54:42;103341.47;;;7.13;44.72
59493;BME280;45497;43.996;22.876;2023-02-13T08:57:08;103335.19;;;7.32;45.52
59493;BME280;45497;43.996;22.876;2023-02-13T08:59:33;103329.34;;;7.58;45.11
59493;BME280;45497;43.996;22.876;2023-02-13T09:01:59;103335.00;;;7.66;43.81
59493;BME280;45497;43.996;22.876;2023-02-13T09:04:24;103337.94;;;7.78;43.60
59493;BME280;45497;43.996;22.876;2023-02-13T09:06:49;103335.69;;;7.86;43.50
59493;BME280;45497;43.996;22.876;2023-02-13T09:09:15;103335.00;;;7.82;44.46
59493;BME280;45497;43.996;22.876;2023-02-13T09:11:41;103331.53;;;7.82;41.90
59493;BME280;45497;43.996;22.876;2023-02-13T09:14:06;103340.66;;;7.76;42.42
59493;BME280;45497;43.996;22.876;2023-02-13T09:16:32;103335.97;;;8.12;43.64
59493;BME280;45497;43.996;22.876;2023-02-13T09:18:57;103331.84;;;8.22;41.83
59493;BME280;45497;43.996;22.876;2023-02-13T09:21:23;103336.06;;;8.10;43.47
59493;BME280;45497;43.996;22.876;2023-02-13T09:23:49;103322.59;;;8.45;43.61
59493;BME280;45497;43.996;22.876;2023-02-13T09:26:16;103327.91;;;8.29;41.01
59493;BME280;45497;43.996;22.876;2023-02-13T09:28:42;103314.69;;;8.45;41.47
59493;BME280;45497;43.996;22.876;2023-02-13T09:31:13;103320.63;;;8.49;40.89
59493;BME280;45497;43.996;22.876;2023-02-13T09:33:42;103316.28;;;8.32;40.54
59493;BME280;45497;43.996;22.876;2023-02-13T09:36:18;103319.31;;;8.26;40.03
59493;BME280;45497;43.996;22.876;2023-02-13T09:38:45;103317.53;;;8.40;40.51
59493;BME280;45497;43.996;22.876;2023-02-13T09:46:32;103312.22;;;8.56;39.89
59493;BME280;45497;43.996;22.876;2023-02-13T09:49:01;103317.25;;;8.75;39.69
59493;BME280;45497;43.996;22.876;2023-02-13T09:51:29;103307.91;;;8.84;39.92
59493;BME280;45497;43.996;22.876;2023-02-13T09:54:05;103306.88;;;8.87;39.39
59493;BME280;45497;43.996;22.876;2023-02-13T10:02:07;103295.13;;;8.76;39.56
59493;BME280;45497;43.996;22.876;2023-02-13T10:04:48;103301.97;;;8.80;38.46
59493;BME280;45497;43.996;22.876;2023-02-13T10:07:41;103273.69;;;8.95;38.92
59493;BME280;45497;43.996;22.876;2023-02-13T10:13:05;103282.56;;;8.80;38.98
59493;BME280;45497;43.996;22.876;2023-02-13T10:15:52;103282.97;;;8.74;37.62
59493;BME280;45497;43.996;22.876;2023-02-13T10:18:23;103264.81;;;8.82;38.00
59493;BME280;45497;43.996;22.876;2023-02-13T10:20:52;103274.53;;;8.96;38.70
59493;BME280;45497;43.996;22.876;2023-02-13T10:23:29;103272.06;;;8.93;37.73
59493;BME280;45497;43.996;22.876;2023-02-13T10:26:15;103255.50;;;9.18;37.20
59493;BME280;45497;43.996;22.876;2023-02-13T10:29:02;103250.22;;;9.18;38.15
59493;BME280;45497;43.996;22.876;2023-02-13T10:31:48;103250.78;;;9.23;37.06
59493;BME280;45497;43.996;22.876;2023-02-13T10:34:16;103243.97;;;9.19;37.07
59493;BME280;45497;43.996;22.876;2023-02-13T10:36:46;103241.28;;;9.33;36.68
59493;BME280;45497;43.996;22.876;2023-02-13T10:39:22;103231.19;;;9.53;36.97
59493;BME280;45497;43.996;22.876;2023-02-13T10:47:34;103217.53;;;9.59;37.17
59493;BME280;45497;43.996;22.876;2023-02-13T11:01:08;103203.75;;;9.54;35.95
59493;BME280;45497;43.996;22.876;2023-02-13T11:03:38;103197.47;;;9.82;36.31
59493;BME280;45497;43.996;22.876;2023-02-13T11:06:10;103182.84;;;10.02;37.61
59493;BME280;45497;43.996;22.876;2023-02-13T11:08:41;103173.53;;;9.97;37.04
59493;BME280;45497;43.996;22.876;2023-02-13T11:14:24;103174.06;;;10.02;35.89
59493;BME280;45497;43.996;22.876;2023-02-13T11:16:52;103171.31;;;10.03;37.05
59493;BME280;45497;43.996;22.876;2023-02-13T11:19:27;103154.97;;;9.97;34.56
59493;BME280;45497;43.996;22.876;2023-02-13T11:24:31;103158.25;;;10.26;35.55
59493;BME280;45497;43.996;22.876;2023-02-13T11:27:08;103147.38;;;10.05;34.59
59493;BME280;45497;43.996;22.876;2023-02-13T11:29:51;103142.25;;;10.14;34.49
59493;BME280;45497;43.996;22.876;2023-02-13T11:32:20;103148.09;;;10.32;34.42
59493;BME280;45497;43.996;22.876;2023-02-13T11:34:46;103139.50;;;10.42;34.22
59493;BME280;45497;43.996;22.876;2023-02-13T11:37:16;103133.16;;;10.68;34.72
59493;BME280;45497;43.996;22.876;2023-02-13T11:39:43;103125.78;;;10.61;32.33
59493;BME280;45497;43.996;22.876;2023-02-13T11:42:30;103126.41;;;10.64;32.73
59493;BME280;45497;43.996;22.876;2023-02-13T11:45:03;103120.53;;;10.72;32.19
59493;BME280;45497;43.996;22.876;2023-02-13T11:47:38;103119.22;;;10.78;32.40
59493;BME280;45497;43.996;22.876;2023-02-13T11:50:18;103110.94;;;10.82;32.35
59493;BME280;45497;43.996;22.876;2023-02-13T11:52:53;103103.06;;;10.57;30.81
59493;BME280;45497;43.996;22.876;2023-02-13T11:55:35;103103.16;;;10.68;31.31
59493;BME280;45497;43.996;22.876;2023-02-13T12:00:41;103088.31;;;10.89;30.55
59493;BME280;45497;43.996;22.876;2023-02-13T12:03:26;103089.25;;;10.88;30.18
59493;BME280;45497;43.996;22.876;2023-02-13T12:08:37;103077.94;;;10.98;30.10
59493;BME280;45497;43.996;22.876;2023-02-13T12:11:16;103076.09;;;11.11;30.02
59493;BME280;45497;43.996;22.876;2023-02-13T12:13:45;103060.88;;;11.13;28.81
59493;BME280;45497;43.996;22.876;2023-02-13T12:19:06;103054.84;;;11.11;28.53
59493;BME280;45497;43.996;22.876;2023-02-13T12:27:51;103049.28;;;11.14;28.85
59493;BME280;45497;43.996;22.876;2023-02-13T12:38:44;103032.44;;;10.91;26.79
59493;BME280;45497;43.996;22.876;2023-02-13T12:41:15;103031.81;;;11.12;27.01
59493;BME280;45497;43.996;22.876;2023-02-13T12:46:55;103010.19;;;11.16;27.33
59493;BME280;45497;43.996;22.876;2023-02-13T13:01:24;103007.44;;;11.18;28.47
59493;BME280;45497;43.996;22.876;2023-02-13T13:04:04;103011.56;;;11.22;27.98
59493;BME280;45497;43.996;22.876;2023-02-13T13:06:51;102995.19;;;11.51;28.18
59493;BME280;45497;43.996;22.876;2023-02-13T13:09:53;102997.13;;;11.60;28.17
59493;BME280;45497;43.996;22.876;2023-02-13T13:23:13;102985.84;;;11.22;27.11
59493;BME280;45497;43.996;22.876;2023-02-13T13:28:24;102984.78;;;11.47;27.94
59493;BME280;45497;43.996;22.876;2023-02-13T13:30:53;102983.22;;;11.56;27.18
59493;BME280;45497;43.996;22.876;2023-02-13T13:33:24;102977.06;;;11.44;27.47
59493;BME280;45497;43.996;22.876;2023-02-13T13:54:51;102974.50;;;11.77;27.34
59493;BME280;45497;43.996;22.876;2023-02-13T13:57:56;102958.81;;;11.74;27.92
59493;BME280;45497;43.996;22.876;2023-02-13T14:02:51;102963.78;;;11.56;28.16
59493;BME280;45497;43.996;22.876;2023-02-13T14:05:32;102969.56;;;11.50;29.11
59493;BME280;45497;43.996;22.876;2023-02-13T14:08:00;102977.53;;;11.61;29.39
59493;BME280;45497;43.996;22.876;2023-02-13T14:18:06;102967.78;;;11.61;28.59
59493;BME280;45497;43.996;22.876;2023-02-13T14:31:25;102957.75;;;11.54;29.61
59493;BME280;45497;43.996;22.876;2023-02-13T14:39:07;102956.53;;;11.46;30.08
59493;BME280;45497;43.996;22.876;2023-02-13T14:46:50;102960.41;;;11.54;30.77
59493;BME280;45497;43.996;22.876;2023-02-13T14:49:26;102958.34;;;11.57;30.46
59493;BME280;45497;43.996;22.876;2023-02-13T14:51:58;102958.84;;;11.51;29.81
59493;BME280;45497;43.996;22.876;2023-02-13T14:54:29;102957.38;;;11.36;30.27
59493;BME280;45497;43.996;22.876;2023-02-13T14:57:48;102956.53;;;11.24;30.22
59493;BME280;45497;43.996;22.876;2023-02-13T14:59:56;102961.25;;;11.32;30.45
59493;BME280;45497;43.996;22.876;2023-02-13T15:02:25;102951.69;;;11.18;30.39
59493;BME280;45497;43.996;22.876;2023-02-13T15:05:09;102953.75;;;11.25;30.69
59493;BME280;45497;43.996;22.876;2023-02-13T15:07:43;102950.28;;;11.36;30.39
59493;BME280;45497;43.996;22.876;2023-02-13T15:13:01;102946.25;;;11.31;31.13
59493;BME280;45497;43.996;22.876;2023-02-13T15:15:32;102941.94;;;11.18;31.07
59493;BME280;45497;43.996;22.876;2023-02-13T15:18:00;102942.28;;;11.14;30.95
59493;BME280;45497;43.996;22.876;2023-02-13T15:20:29;102943.84;;;11.16;31.30
59493;BME280;45497;43.996;22.876;2023-02-13T15:22:57;102947.47;;;10.68;31.56
59493;BME280;45497;43.996;22.876;2023-02-13T15:25:35;102946.97;;;10.63;31.55
59493;BME280;45497;43.996;22.876;2023-02-13T15:28:05;102942.06;;;10.70;32.03
59493;BME280;45497;43.996;22.876;2023-02-13T15:30:34;102939.78;;;10.77;31.95
59493;BME280;45497;43.996;22.876;2023-02-13T15:33:15;102946.91;;;10.76;32.44
59493;BME280;45497;43.996;22.876;2023-02-13T15:35:41;102952.94;;;10.43;33.45
59493;BME280;45497;43.996;22.876;2023-02-13T15:40:44;102947.34;;;10.35;34.06
59493;BME280;45497;43.996;22.876;2023-02-13T15:43:26;102957.50;;;10.28;34.33
59493;BME280;45497;43.996;22.876;2023-02-13T15:45:59;102962.19;;;10.24;34.41
59493;BME280;45497;43.996;22.876;2023-02-13T15:48:26;102954.53;;;10.08;34.51
59493;BME280;45497;43.996;22.876;2023-02-13T15:50:53;102963.94;;;10.12;34.54
59493;BME280;45497;43.996;22.876;2023-02-13T15:53:20;102951.22;;;10.18;35.24
59493;BME280;45497;43.996;22.876;2023-02-13T15:55:57;102945.97;;;10.05;34.85
59493;BME280;45497;43.996;22.876;2023-02-13T15:58:27;102956.25;;;9.97;35.84
59493;BME280;45497;43.996;22.876;2023-02-13T16:00:54;102959.03;;;9.95;35.20
59493;BME280;45497;43.996;22.876;2023-02-13T16:03:24;102955.06;;;9.76;35.74
59493;BME280;45497;43.996;22.876;2023-02-13T16:05:50;102951.94;;;9.83;35.65